Time;durP1;ratioP1;P1;durP2;ratioP2;P2;SDS_P1;SDS_P2;PMS_P1;PMS_P2;Temp;Humidity;BMP_temperature;BMP_pressure;BME280_temperature;BME280_humidity;BME280_pressure;Samples;Min_cycle;Max_cycle;Signal;HPM_P1;HPM_P2
2022/10/10 00:01:26;;;;;;;4.97;1.48;;;17.70;99.40;;;;;;5081004;28;20405;-87
2022/10/10 00:03:54;;;;;;;6.20;1.63;;;17.60;99.50;;;;;;5079991;28;20400;-94
2022/10/10 00:06:22;;;;;;;6.32;1.67;;;17.50;99.30;;;;;;5077349;28;20389;-94
2022/10/10 00:08:51;;;;;;;7.03;1.60;;;17.40;99.70;;;;;;5079769;28;20426;-94
2022/10/10 00:11:21;;;;;;;4.97;1.50;;;17.50;99.20;;;;;;5079282;28;20846;-90
2022/10/10 00:13:48;;;;;;;6.95;1.35;;;17.60;98.60;;;;;;5079216;28;20386;-94
2022/10/10 00:16:16;;;;;;;5.32;1.42;;;17.50;98.20;;;;;;5078574;28;20378;-88
2022/10/10 00:18:44;;;;;;;6.90;1.58;;;17.60;98.50;;;;;;5060278;28;20770;-94
2022/10/10 00:21:12;;;;;;;5.43;1.55;;;17.80;98.90;;;;;;5077896;28;20378;-93
2022/10/10 00:23:39;;;;;;;6.85;1.67;;;17.80;98.10;;;;;;5064046;28;20765;-92
2022/10/10 00:26:07;;;;;;;8.40;1.80;;;17.80;98.30;;;;;;5077738;28;20447;-91
2022/10/10 00:28:37;;;;;;;6.70;1.40;;;17.90;99.10;;;;;;5077031;28;20409;-94
2022/10/10 00:31:08;;;;;;;7.65;1.70;;;18.10;97.50;;;;;;5065349;28;20364;-93
2022/10/10 00:33:37;;;;;;;8.00;1.48;;;17.90;97.10;;;;;;5078253;28;20401;-87
2022/10/10 00:36:05;;;;;;;5.95;1.48;;;18.10;96.70;;;;;;5062321;28;20417;-94
2022/10/10 00:38:33;;;;;;;6.65;1.63;;;18.40;96.20;;;;;;5075102;28;20482;-93
2022/10/10 00:41:01;;;;;;;3.97;1.40;;;18.60;94.50;;;;;;5075467;28;20440;-92
2022/10/10 00:43:29;;;;;;;4.93;1.50;;;18.70;95.60;;;;;;5075124;28;20382;-94
2022/10/10 00:45:56;;;;;;;6.22;1.60;;;19.00;95.30;;;;;;5074010;28;20374;-84
2022/10/10 00:48:35;;;;;;;7.18;1.40;;;19.10;92.70;;;;;;5074117;28;20390;-84
2022/10/10 00:51:12;;;;;;;4.85;1.48;;;19.10;93.10;;;;;;5074389;28;20378;-84
2022/10/10 00:53:46;;;;;;;6.53;1.58;;;18.80;94.10;;;;;;5061938;28;20383;-91
2022/10/10 00:56:21;;;;;;;9.45;1.70;;;18.80;94.10;;;;;;5076978;28;20842;-85
2022/10/10 00:58:52;;;;;;;5.47;1.50;;;18.80;93.60;;;;;;5051334;28;20389;-88
2022/10/10 01:01:20;;;;;;;5.55;1.50;;;18.70;94.00;;;;;;5078882;28;20362;-89
2022/10/10 01:03:47;;;;;;;4.77;1.40;;;18.60;94.40;;;;;;5087221;28;20393;-86
2022/10/10 01:06:14;;;;;;;7.53;1.50;;;18.40;93.00;;;;;;5093938;28;20374;-84
2022/10/10 01:08:42;;;;;;;5.45;1.42;;;18.20;94.40;;;;;;5091373;28;20382;-83
2022/10/10 01:11:28;;;;;;;8.48;1.58;;;18.10;95.40;;;;;;5091670;28;20382;-92
2022/10/10 01:14:07;;;;;;;5.63;1.45;;;18.00;95.90;;;;;;5080068;28;20487;-85
2022/10/10 01:17:11;;;;;;;6.60;1.60;;;17.90;96.40;;;;;;5078982;28;20374;-93
2022/10/10 01:20:18;;;;;;;6.67;1.43;;;17.80;95.80;;;;;;5068004;28;20516;-91
2022/10/10 01:23:07;;;;;;;8.07;1.50;;;17.60;96.30;;;;;;5056464;28;20388;-84
2022/10/10 01:25:57;;;;;;;5.70;1.70;;;17.50;96.40;;;;;;5074253;28;20385;-91
2022/10/10 01:28:42;;;;;;;7.57;1.70;;;17.30;97.30;;;;;;5065070;28;20490;-91
2022/10/10 01:31:12;;;;;;;6.88;1.60;;;17.20;97.70;;;;;;5074756;28;20370;-85
2022/10/10 01:34:01;;;;;;;7.43;1.48;;;16.90;98.80;;;;;;5071491;28;20380;-87
2022/10/10 01:36:47;;;;;;;6.03;1.50;;;16.80;98.70;;;;;;5075031;28;20378;-87
2022/10/10 01:39:37;;;;;;;6.25;1.70;;;16.80;99.10;;;;;;5068276;28;20396;-86
2022/10/10 01:42:20;;;;;;;5.75;1.50;;;16.60;99.90;;;;;;5062696;28;20394;-88
2022/10/10 01:44:52;;;;;;;7.78;1.70;;;16.60;99.90;;;;;;5068077;28;20379;-84
2022/10/10 01:47:21;;;;;;;7.95;1.60;;;16.50;99.90;;;;;;5058185;28;20374;-87
2022/10/10 01:49:54;;;;;;;7.45;1.80;;;16.40;99.90;;;;;;5071848;28;21165;-82
2022/10/10 01:52:29;;;;;;;7.85;1.67;;;16.40;99.90;;;;;;5070252;28;20461;-85
2022/10/10 01:55:11;;;;;;;5.78;1.67;;;16.30;99.90;;;;;;5061156;28;20413;-82
2022/10/10 01:57:59;;;;;;;8.90;1.60;;;16.30;99.90;;;;;;5065089;28;20381;-83
2022/10/10 02:00:27;;;;;;;7.80;1.70;;;16.30;99.90;;;;;;5061482;28;20740;-86
2022/10/10 02:03:31;;;;;;;5.00;1.40;;;16.30;99.90;;;;;;5071759;28;20390;-86
2022/10/10 02:06:17;;;;;;;7.15;1.70;;;16.30;99.90;;;;;;4983045;28;20389;-84
2022/10/10 02:09:04;;;;;;;5.90;1.60;;;16.40;99.90;;;;;;4993610;28;20471;-90
2022/10/10 02:11:38;;;;;;;7.55;1.50;;;16.50;99.90;;;;;;4995033;28;20400;-87
2022/10/10 02:14:23;;;;;;;7.93;1.70;;;16.70;99.90;;;;;;4994314;28;20463;-90
2022/10/10 02:16:54;;;;;;;6.68;1.65;;;16.80;99.90;;;;;;4992899;28;20400;-90
2022/10/10 02:19:22;;;;;;;5.35;1.40;;;17.00;99.20;;;;;;4996361;28;20416;-89
2022/10/10 02:21:52;;;;;;;6.10;1.60;;;17.60;99.90;;;;;;4993301;28;20435;-90
2022/10/10 02:24:22;;;;;;;7.68;1.60;;;18.10;97.30;;;;;;4988328;28;20416;-85
2022/10/10 02:26:58;;;;;;;4.65;1.30;;;19.00;96.20;;;;;;4994164;28;21016;-88
2022/10/10 02:29:31;;;;;;;4.43;1.38;;;20.30;93.00;;;;;;4977746;28;20432;-90
2022/10/10 02:32:17;;;;;;;7.03;1.58;;;21.00;90.60;;;;;;4978156;28;20403;-88
2022/10/10 02:34:49;;;;;;;7.60;1.60;;;21.10;85.10;;;;;;5007979;28;20440;-89
2022/10/10 02:37:17;;;;;;;5.70;1.42;;;20.90;85.50;;;;;;4993931;28;20479;-88
2022/10/10 02:39:52;;;;;;;5.00;1.45;;;21.20;84.50;;;;;;4980960;28;20419;-91
2022/10/10 02:42:21;;;;;;;6.80;1.40;;;21.10;82.30;;;;;;5059020;28;20386;-90
2022/10/10 02:44:49;;;;;;;6.18;1.38;;;20.80;82.20;;;;;;5056290;28;20504;-90
2022/10/10 02:47:16;;;;;;;6.40;1.53;;;20.50;83.80;;;;;;5052633;28;20388;-89
2022/10/10 02:49:44;;;;;;;4.38;1.50;;;20.30;85.70;;;;;;5048672;28;20530;-90
2022/10/10 02:52:14;;;;;;;8.10;1.70;;;19.80;87.90;;;;;;5053778;28;20839;-86
2022/10/10 02:54:42;;;;;;;6.20;1.88;;;19.30;89.20;;;;;;5077563;28;20382;-87
2022/10/10 02:57:10;;;;;;;8.80;1.88;;;19.00;90.50;;;;;;5072764;28;20388;-87
2022/10/10 02:59:37;;;;;;;8.13;1.70;;;18.90;91.10;;;;;;5084925;28;20439;-84
2022/10/10 03:02:05;;;;;;;4.05;1.40;;;18.70;91.20;;;;;;5069556;28;20461;-88
2022/10/10 03:04:32;;;;;;;6.63;1.70;;;18.70;91.80;;;;;;5071340;28;20411;-87
2022/10/10 03:06:59;;;;;;;6.07;1.60;;;18.80;92.40;;;;;;5074346;28;20381;-87
2022/10/10 03:09:26;;;;;;;6.00;1.50;;;19.00;92.30;;;;;;5069884;28;20409;-88
2022/10/10 03:11:53;;;;;;;5.70;1.52;;;19.10;91.70;;;;;;5062188;28;20378;-88
2022/10/10 03:14:20;;;;;;;8.48;1.60;;;19.40;91.10;;;;;;5047216;28;20429;-90
2022/10/10 03:16:48;;;;;;;40.70;5.68;;;19.40;90.70;;;;;;5070471;28;20966;-88
2022/10/10 03:19:14;;;;;;;17.20;2.60;;;19.20;91.30;;;;;;5061343;28;20782;-82
2022/10/10 03:21:41;;;;;;;6.90;1.70;;;19.10;91.50;;;;;;5045095;28;20505;-86
2022/10/10 03:24:08;;;;;;;6.18;1.30;;;19.10;91.30;;;;;;5061395;28;20392;-86
2022/10/10 03:26:35;;;;;;;5.85;1.50;;;19.10;91.60;;;;;;5070459;28;20924;-86
2022/10/10 03:29:03;;;;;;;7.07;1.60;;;19.10;91.70;;;;;;5070586;28;20409;-85
2022/10/10 03:31:30;;;;;;;7.70;1.65;;;19.10;92.30;;;;;;5038539;28;20711;-85
2022/10/10 03:33:58;;;;;;;6.28;1.50;;;19.30;91.60;;;;;;5068928;28;20378;-88
2022/10/10 03:36:26;;;;;;;6.68;1.60;;;19.40;91.50;;;;;;5063490;28;20393;-86
2022/10/10 03:38:53;;;;;;;5.95;1.30;;;19.70;91.50;;;;;;5053012;28;20483;-84
2022/10/10 03:41:20;;;;;;;6.15;1.45;;;20.00;89.60;;;;;;5039751;28;20908;-87
2022/10/10 03:43:47;;;;;;;5.05;1.33;;;20.20;88.70;;;;;;5067950;28;20433;-84
2022/10/10 03:46:14;;;;;;;4.13;1.40;;;19.90;89.20;;;;;;5050606;28;20862;-91
2022/10/10 03:48:41;;;;;;;8.40;1.42;;;19.80;89.10;;;;;;5068657;28;20399;-89
2022/10/10 03:51:08;;;;;;;7.85;1.50;;;19.50;90.20;;;;;;5070491;28;20409;-90
2022/10/10 03:53:35;;;;;;;8.95;1.67;;;19.30;90.10;;;;;;5070200;28;20461;-87
2022/10/10 03:56:02;;;;;;;9.00;1.50;;;19.30;90.00;;;;;;5068498;28;20948;-91
2022/10/10 03:58:29;;;;;;;9.65;1.45;;;19.10;90.80;;;;;;5065646;28;20405;-89
2022/10/10 04:00:58;;;;;;;8.90;1.70;;;18.90;91.30;;;;;;5070810;28;20386;-86
2022/10/10 04:03:25;;;;;;;7.07;1.40;;;18.90;91.90;;;;;;5070213;28;20389;-88
2022/10/10 04:05:53;;;;;;;4.85;1.30;;;19.10;91.90;;;;;;5067213;28;20406;-88
2022/10/10 04:08:21;;;;;;;8.40;1.65;;;19.30;91.60;;;;;;5069854;28;20398;-90
2022/10/10 04:10:52;;;;;;;6.00;1.60;;;19.40;90.40;;;;;;5065621;28;20399;-88
2022/10/10 04:13:21;;;;;;;7.38;1.50;;;19.70;90.50;;;;;;5062393;28;20805;-89
2022/10/10 04:15:53;;;;;;;5.93;1.50;;;20.00;90.00;;;;;;5064756;28;20948;-90
2022/10/10 04:18:20;;;;;;;8.07;1.50;;;20.50;89.20;;;;;;5070695;28;20381;-88
2022/10/10 04:20:47;;;;;;;6.30;1.50;;;21.00;86.40;;;;;;5064964;28;20384;-89
2022/10/10 04:23:15;;;;;;;7.18;1.88;;;21.40;83.30;;;;;;5070462;28;20393;-90
2022/10/10 04:25:43;;;;;;;6.75;1.50;;;21.90;79.30;;;;;;5070350;28;20367;-83
2022/10/10 04:28:14;;;;;;;6.20;1.35;;;22.10;78.80;;;;;;5070750;28;20498;-86
2022/10/10 04:30:42;;;;;;;8.15;1.58;;;22.20;76.70;;;;;;5070169;28;20382;-88
2022/10/10 04:33:09;;;;;;;5.75;1.60;;;21.90;76.20;;;;;;5069002;28;20378;-88
2022/10/10 04:35:36;;;;;;;5.18;1.55;;;21.50;76.50;;;;;;5060026;28;20404;-85
2022/10/10 04:38:03;;;;;;;5.15;1.40;;;20.90;79.00;;;;;;5071475;28;20370;-89
2022/10/10 04:40:30;;;;;;;6.10;1.60;;;20.40;81.90;;;;;;5073169;28;20405;-85
2022/10/10 04:42:57;;;;;;;5.57;1.50;;;20.10;82.30;;;;;;5068337;28;20380;-86
2022/10/10 04:45:25;;;;;;;6.00;1.40;;;19.90;82.00;;;;;;5074076;28;20390;-87
2022/10/10 04:47:55;;;;;;;6.43;1.50;;;19.90;83.60;;;;;;5070235;28;20780;-90
2022/10/10 04:50:23;;;;;;;5.25;1.48;;;20.00;82.00;;;;;;5073293;28;20812;-87
2022/10/10 04:52:50;;;;;;;7.07;1.35;;;19.90;82.30;;;;;;5072993;28;20421;-87
2022/10/10 04:55:17;;;;;;;7.25;1.70;;;19.80;83.20;;;;;;5060447;28;20412;-89
2022/10/10 04:57:44;;;;;;;6.80;1.73;;;19.90;83.10;;;;;;5066874;28;20378;-87
2022/10/10 05:00:12;;;;;;;3.90;1.40;;;20.00;83.00;;;;;;5064472;28;20386;-92
2022/10/10 05:02:39;;;;;;;5.88;1.63;;;20.10;83.40;;;;;;5073056;28;20417;-89
2022/10/10 05:05:08;;;;;;;5.28;1.30;;;20.20;82.30;;;;;;5059702;28;20465;-92
2022/10/10 05:07:35;;;;;;;5.40;1.40;;;19.90;83.60;;;;;;5068771;28;20415;-88
2022/10/10 05:10:04;;;;;;;5.53;1.40;;;19.80;83.40;;;;;;5039668;28;20439;-92
2022/10/10 05:12:32;;;;;;;6.50;1.45;;;19.40;84.20;;;;;;5069341;28;20489;-87
2022/10/10 05:14:59;;;;;;;4.95;1.42;;;19.30;84.20;;;;;;5064006;28;20390;-84
2022/10/10 05:17:26;;;;;;;5.88;1.23;;;19.10;86.20;;;;;;5060143;28;20750;-87
2022/10/10 05:19:52;;;;;;;5.07;1.40;;;18.90;87.30;;;;;;5073498;28;20385;-92
2022/10/10 05:22:19;;;;;;;5.80;1.50;;;18.80;87.40;;;;;;5073129;28;20452;-89
2022/10/10 05:24:46;;;;;;;5.40;1.45;;;18.70;88.10;;;;;;5074031;28;20382;-87
2022/10/10 05:27:13;;;;;;;6.40;1.77;;;18.50;89.40;;;;;;5073335;28;20368;-88
2022/10/10 05:29:40;;;;;;;8.35;1.60;;;18.30;90.30;;;;;;5073218;28;20412;-92
2022/10/10 05:32:07;;;;;;;4.78;1.40;;;18.20;90.40;;;;;;5073611;28;20370;-85
2022/10/10 05:34:35;;;;;;;5.47;1.50;;;18.10;91.30;;;;;;5021530;28;20397;-92
2022/10/10 05:37:02;;;;;;;5.95;1.40;;;18.00;91.30;;;;;;5074866;28;20374;-90
2022/10/10 05:39:30;;;;;;;4.50;1.40;;;17.90;91.80;;;;;;5075689;28;20370;-94
2022/10/10 05:41:56;;;;;;;7.38;1.50;;;17.80;92.00;;;;;;5057473;28;20527;-86
2022/10/10 05:44:24;;;;;;;6.30;1.45;;;17.80;92.70;;;;;;5085201;28;20374;-84
2022/10/10 05:46:51;;;;;;;6.35;1.65;;;17.60;93.20;;;;;;5085376;28;20406;-87
2022/10/10 05:49:18;;;;;;;6.53;1.50;;;17.60;93.40;;;;;;5084077;28;20410;-87
2022/10/10 05:51:46;;;;;;;5.88;1.50;;;17.50;92.90;;;;;;5074472;28;20427;-87
2022/10/10 05:54:13;;;;;;;6.18;1.50;;;17.50;92.90;;;;;;5076611;28;20385;-90
2022/10/10 05:56:40;;;;;;;6.68;1.60;;;17.40;93.40;;;;;;5074459;28;20431;-91
2022/10/10 05:59:07;;;;;;;6.43;1.50;;;17.40;93.20;;;;;;5073118;28;20390;-86
2022/10/10 06:01:35;;;;;;;4.75;1.48;;;17.40;93.40;;;;;;5072421;28;20374;-89
2022/10/10 06:04:03;;;;;;;5.25;1.42;;;17.30;93.40;;;;;;5072223;28;20461;-84
2022/10/10 06:06:30;;;;;;;6.37;1.40;;;17.40;94.20;;;;;;5071149;28;20370;-83
2022/10/10 06:08:58;;;;;;;5.03;1.50;;;17.30;93.90;;;;;;5063021;28;20406;-82
2022/10/10 06:11:25;;;;;;;6.22;1.58;;;17.30;93.60;;;;;;5071493;28;20846;-82
2022/10/10 06:13:53;;;;;;;7.50;1.70;;;17.30;93.90;;;;;;5070763;28;20890;-92
2022/10/10 06:16:25;;;;;;;5.65;1.50;;;17.30;93.90;;;;;;5072797;28;20442;-87
2022/10/10 06:18:53;;;;;;;6.32;1.50;;;17.20;94.40;;;;;;5073555;28;20371;-84
2022/10/10 06:21:20;;;;;;;7.72;1.50;;;17.20;94.70;;;;;;5071349;28;20927;-83
2022/10/10 06:23:47;;;;;;;4.97;1.50;;;17.10;94.70;;;;;;5063260;28;20445;-87
2022/10/10 06:26:15;;;;;;;6.80;1.60;;;17.00;94.60;;;;;;5072088;28;20378;-88
2022/10/10 06:28:42;;;;;;;6.65;1.40;;;16.80;95.00;;;;;;5073473;28;20452;-90
2022/10/10 06:31:12;;;;;;;5.22;1.40;;;16.70;95.40;;;;;;5072139;28;20419;-89
2022/10/10 06:33:44;;;;;;;7.45;1.48;;;16.60;95.80;;;;;;5072084;28;20382;-86
2022/10/10 06:36:12;;;;;;;9.20;1.70;;;16.50;95.90;;;;;;5071771;28;20386;-90
2022/10/10 06:38:42;;;;;;;8.85;1.58;;;16.50;96.80;;;;;;5071480;28;20397;-87
2022/10/10 06:41:10;;;;;;;7.40;1.60;;;16.40;97.40;;;;;;5068466;28;20441;-86
2022/10/10 06:43:37;;;;;;;6.85;1.40;;;16.40;97.80;;;;;;5069428;28;20410;-85
2022/10/10 06:46:04;;;;;;;6.72;1.40;;;16.40;98.10;;;;;;5067633;28;20933;-86
2022/10/10 06:48:33;;;;;;;7.38;1.50;;;16.40;97.70;;;;;;5059291;28;20799;-85
2022/10/10 06:51:03;;;;;;;6.97;1.30;;;16.30;97.50;;;;;;5071684;28;20387;-82
2022/10/10 06:53:31;;;;;;;7.75;1.40;;;16.30;97.90;;;;;;5057703;28;20376;-84
2022/10/10 06:56:01;;;;;;;7.63;1.40;;;16.30;98.20;;;;;;5063205;28;20793;-91
2022/10/10 06:58:29;;;;;;;5.55;1.38;;;16.30;97.90;;;;;;5061045;28;22198;-86
2022/10/10 07:00:59;;;;;;;6.63;1.50;;;16.20;98.70;;;;;;5056443;28;21176;-87
2022/10/10 07:03:28;;;;;;;6.88;1.30;;;16.00;99.20;;;;;;5049005;28;20457;-88
2022/10/10 07:05:58;;;;;;;5.95;1.40;;;16.00;99.40;;;;;;5052975;28;20378;-89
2022/10/10 07:08:26;;;;;;;9.25;1.40;;;16.00;99.50;;;;;;5069268;28;20394;-88
2022/10/10 07:10:53;;;;;;;6.28;1.50;;;16.10;99.40;;;;;;5070998;28;20472;-80
2022/10/10 07:13:21;;;;;;;8.97;1.70;;;16.00;99.80;;;;;;5070293;28;20905;-85
2022/10/10 07:15:48;;;;;;;8.47;1.80;;;16.00;99.70;;;;;;5069368;28;20398;-89
2022/10/10 07:18:18;;;;;;;5.80;1.42;;;15.90;99.60;;;;;;5072014;28;20385;-87
2022/10/10 07:20:45;;;;;;;5.97;1.50;;;15.90;99.90;;;;;;5069771;28;20383;-86
2022/10/10 07:23:12;;;;;;;5.70;1.33;;;15.80;99.90;;;;;;5051501;28;20750;-85
2022/10/10 07:25:40;;;;;;;6.82;1.50;;;15.80;99.90;;;;;;5070693;28;20439;-87
2022/10/10 07:28:08;;;;;;;4.93;1.52;;;15.70;99.90;;;;;;5061392;28;20429;-86
2022/10/10 07:30:43;;;;;;;7.85;1.63;;;15.70;99.90;;;;;;5052988;28;20390;-88
2022/10/10 07:33:12;;;;;;;9.27;1.70;;;15.60;99.90;;;;;;5060341;28;20386;-87
2022/10/10 07:35:39;;;;;;;7.75;1.63;;;15.60;99.90;;;;;;5049030;28;20396;-88
2022/10/10 07:38:06;;;;;;;7.25;1.60;;;15.70;99.90;;;;;;5070578;28;20415;-87
2022/10/10 07:40:33;;;;;;;6.80;1.58;;;15.60;99.90;;;;;;5084375;28;20472;-85
2022/10/10 07:43:00;;;;;;;7.05;1.75;;;15.60;99.90;;;;;;5084259;28;20410;-84
2022/10/10 07:45:27;;;;;;;8.35;2.67;;;15.50;99.90;;;;;;5078712;28;20395;-86
2022/10/10 07:47:54;;;;;;;6.72;1.92;;;15.50;99.90;;;;;;5067266;28;20446;-86
2022/10/10 07:50:23;;;;;;;6.47;1.50;;;15.50;99.90;;;;;;5085717;28;20382;-85
2022/10/10 07:52:50;;;;;;;6.53;1.50;;;15.40;99.90;;;;;;5072671;28;20372;-84
2022/10/10 07:55:18;;;;;;;5.88;1.60;;;15.40;99.90;;;;;;5073294;28;20366;-85
2022/10/10 07:57:46;;;;;;;6.70;1.70;;;15.40;99.90;;;;;;5081907;28;20438;-86
2022/10/10 08:00:14;;;;;;;7.65;1.55;;;15.40;99.90;;;;;;5070830;28;20390;-88
2022/10/10 08:02:41;;;;;;;6.40;1.50;;;15.40;99.90;;;;;;5068325;28;20389;-87
2022/10/10 08:05:08;;;;;;;6.00;1.50;;;15.40;99.90;;;;;;5056061;28;20388;-86
2022/10/10 08:07:35;;;;;;;7.15;1.70;;;15.20;99.90;;;;;;5065511;28;20439;-87
2022/10/10 08:10:02;;;;;;;10.32;1.90;;;15.10;99.90;;;;;;5076343;28;20405;-87
2022/10/10 08:12:29;;;;;;;9.18;3.35;;;15.00;99.90;;;;;;5048622;28;20436;-86
2022/10/10 08:14:58;;;;;;;11.98;4.90;;;14.90;99.90;;;;;;5073877;28;20431;-87
2022/10/10 08:17:25;;;;;;;9.73;2.70;;;14.70;99.90;;;;;;5068969;28;20739;-88
2022/10/10 08:19:52;;;;;;;7.30;2.20;;;14.70;99.90;;;;;;5073951;28;20421;-88
2022/10/10 08:22:19;;;;;;;8.45;2.33;;;14.50;99.90;;;;;;5079222;28;20813;-87
2022/10/10 08:24:46;;;;;;;7.47;2.70;;;14.50;99.90;;;;;;5080590;28;20449;-87
2022/10/10 08:27:16;;;;;;;7.53;2.60;;;14.40;99.90;;;;;;5079108;28;20464;-87
2022/10/10 08:29:43;;;;;;;9.30;2.33;;;14.40;99.90;;;;;;5064998;28;20467;-87
2022/10/10 08:32:12;;;;;;;7.50;2.75;;;14.30;99.90;;;;;;5050834;28;20385;-87
2022/10/10 08:34:39;;;;;;;11.85;4.13;;;14.20;99.90;;;;;;5040195;28;20433;-87
2022/10/10 08:37:07;;;;;;;11.07;4.00;;;14.30;99.90;;;;;;5072291;28;20380;-88
2022/10/10 08:39:34;;;;;;;9.20;3.40;;;14.30;99.90;;;;;;5049700;28;20402;-88
2022/10/10 08:42:02;;;;;;;8.00;2.88;;;14.30;99.90;;;;;;5061173;28;20425;-88
2022/10/10 08:44:55;;;;;;;4.82;2.30;;;14.40;99.90;;;;;;5076963;28;20382;-89
2022/10/10 08:47:43;;;;;;;9.27;2.30;;;14.40;99.90;;;;;;5065248;28;20830;-89
2022/10/10 08:50:21;;;;;;;7.63;1.90;;;14.50;99.90;;;;;;5063737;28;20410;-87
2022/10/10 08:53:00;;;;;;;7.03;1.95;;;14.50;99.90;;;;;;5064647;28;20391;-88
2022/10/10 08:55:34;;;;;;;6.43;1.70;;;14.50;99.90;;;;;;5072859;28;20772;-88
2022/10/10 08:58:15;;;;;;;9.20;2.30;;;14.50;99.90;;;;;;5071350;28;20388;-88
2022/10/10 09:00:50;;;;;;;6.00;2.30;;;14.50;99.90;;;;;;5064296;28;20474;-88
2022/10/10 09:03:48;;;;;;;9.38;2.90;;;14.60;99.90;;;;;;5069180;28;20899;-88
2022/10/10 09:06:18;;;;;;;8.65;3.40;;;14.60;99.90;;;;;;5057617;28;20382;-86
2022/10/10 09:09:05;;;;;;;10.05;3.42;;;14.60;99.90;;;;;;5053613;28;20404;-87
2022/10/10 09:11:56;;;;;;;8.80;2.90;;;14.70;99.90;;;;;;5037423;28;20429;-87
2022/10/10 09:14:32;;;;;;;6.90;2.72;;;14.70;99.90;;;;;;5060171;28;20390;-87
2022/10/10 09:17:32;;;;;;;7.88;2.90;;;14.60;99.90;;;;;;5067420;28;20382;-86
2022/10/10 09:20:02;;;;;;;8.98;3.17;;;14.60;99.90;;;;;;5063351;28;20930;-86
2022/10/10 09:22:33;;;;;;;9.10;3.70;;;14.70;99.90;;;;;;5072606;28;20421;-87
2022/10/10 09:25:11;;;;;;;7.22;3.40;;;14.70;99.90;;;;;;5057095;28;20454;-86
2022/10/10 09:27:42;;;;;;;10.13;3.65;;;14.70;99.90;;;;;;5076573;28;20394;-86
2022/10/10 09:30:20;;;;;;;8.77;2.78;;;14.70;99.90;;;;;;5076518;28;20467;-87
2022/10/10 09:33:18;;;;;;;6.37;2.10;;;14.60;99.90;;;;;;5076200;28;20370;-87
2022/10/10 09:35:51;;;;;;;8.43;2.20;;;14.70;99.90;;;;;;5075324;28;20869;-87
2022/10/10 09:38:36;;;;;;;8.15;3.10;;;14.70;99.90;;;;;;5066305;28;20856;-87
2022/10/10 09:41:11;;;;;;;9.13;3.30;;;14.70;99.90;;;;;;5073935;28;21156;-87
2022/10/10 09:43:40;;;;;;;7.90;3.00;;;14.70;99.90;;;;;;5087187;28;20370;-87
2022/10/10 09:46:07;;;;;;;6.43;2.80;;;14.70;99.90;;;;;;5106769;28;20394;-88
2022/10/10 09:48:40;;;;;;;7.97;2.70;;;14.70;99.90;;;;;;5095996;28;20478;-87
2022/10/10 09:51:16;;;;;;;7.35;2.10;;;14.10;99.90;;;;;;5096858;28;20366;-87
2022/10/10 09:53:45;;;;;;;7.05;1.60;;;14.70;99.90;;;;;;5095899;28;20374;-88
2022/10/10 09:56:20;;;;;;;7.40;1.90;;;14.70;99.90;;;;;;5095037;28;20376;-88
2022/10/10 09:58:55;;;;;;;7.65;1.95;;;14.70;99.90;;;;;;5090521;28;20371;-88
2022/10/10 10:01:30;;;;;;;7.57;1.90;;;14.80;99.90;;;;;;5075774;28;20769;-87
2022/10/10 10:04:19;;;;;;;6.75;2.05;;;14.70;99.90;;;;;;5090109;28;20384;-88
2022/10/10 10:07:02;;;;;;;6.30;1.83;;;14.70;99.90;;;;;;5076179;28;20443;-88
2022/10/10 10:09:29;;;;;;;7.45;1.83;;;14.70;99.90;;;;;;5064948;28;20414;-88
2022/10/10 10:11:58;;;;;;;6.53;1.90;;;14.70;99.90;;;;;;5082006;28;20389;-88
2022/10/10 10:14:39;;;;;;;5.70;1.80;;;14.70;99.90;;;;;;5077446;28;20445;-88
2022/10/10 10:17:14;;;;;;;6.30;1.80;;;14.70;99.90;;;;;;5046229;28;20383;-88
2022/10/10 10:19:44;;;;;;;10.60;2.00;;;14.60;99.90;;;;;;5047747;28;20383;-88
2022/10/10 10:22:31;;;;;;;5.43;1.77;;;14.70;99.90;;;;;;5067992;28;20382;-87
2022/10/10 10:25:19;;;;;;;7.85;1.90;;;14.70;99.90;;;;;;5056512;28;20382;-88
2022/10/10 10:27:46;;;;;;;8.20;1.80;;;14.70;99.90;;;;;;5068713;28;20388;-88
2022/10/10 10:30:26;;;;;;;7.18;1.70;;;14.70;99.90;;;;;;5059074;28;20947;-88
2022/10/10 10:33:18;;;;;;;6.72;1.65;;;14.70;99.90;;;;;;5065810;28;20861;-88
2022/10/10 10:36:18;;;;;;;9.20;2.03;;;14.60;99.90;;;;;;4991933;28;20393;-88
2022/10/10 10:39:13;;;;;;;4.47;1.70;;;14.60;99.90;;;;;;4985769;28;20399;-89
2022/10/10 10:41:50;;;;;;;8.55;2.10;;;14.60;99.90;;;;;;4986558;28;20388;-88
2022/10/10 10:44:22;;;;;;;9.82;2.20;;;14.50;99.90;;;;;;4981781;28;20402;-90
2022/10/10 10:47:10;;;;;;;6.97;2.20;;;14.50;99.90;;;;;;4970112;28;21152;-87
2022/10/10 10:50:02;;;;;;;6.87;1.90;;;14.50;99.90;;;;;;4973019;28;20464;-86
2022/10/10 10:52:39;;;;;;;7.50;1.88;;;14.50;99.90;;;;;;4982673;28;20400;-87
2022/10/10 10:55:21;;;;;;;7.25;1.95;;;14.40;99.90;;;;;;4987349;28;20488;-88
2022/10/10 10:58:15;;;;;;;5.93;2.00;;;14.40;99.90;;;;;;4980883;28;20429;-88
2022/10/10 11:01:06;;;;;;;6.60;2.10;;;14.40;99.90;;;;;;4979327;28;20406;-89
2022/10/10 11:03:57;;;;;;;6.60;1.90;;;14.40;99.90;;;;;;4988680;28;20447;-89
2022/10/10 11:06:26;;;;;;;10.05;2.13;;;14.40;99.90;;;;;;4972876;28;20393;-88
2022/10/10 11:09:22;;;;;;;8.40;2.10;;;14.40;99.90;;;;;;4987629;28;20406;-89
2022/10/10 11:11:52;;;;;;;6.20;2.10;;;14.40;99.90;;;;;;4982937;28;20802;-90
2022/10/10 11:14:22;;;;;;;7.80;2.00;;;14.40;99.90;;;;;;5052442;28;20400;-87
2022/10/10 11:16:58;;;;;;;5.87;2.17;;;14.40;99.90;;;;;;5046636;28;20769;-88
2022/10/10 11:19:36;;;;;;;9.20;2.30;;;14.40;99.90;;;;;;5071010;28;20453;-89
2022/10/10 11:22:11;;;;;;;6.67;2.30;;;14.40;99.90;;;;;;5056868;28;20387;-89
2022/10/10 11:24:50;;;;;;;6.60;2.20;;;14.50;99.90;;;;;;5059511;28;20386;-89
2022/10/10 11:27:54;;;;;;;7.35;2.55;;;14.50;99.90;;;;;;5060671;28;20781;-90
2022/10/10 11:30:25;;;;;;;8.30;2.10;;;14.50;99.90;;;;;;5038853;28;20485;-88
2022/10/10 11:32:55;;;;;;;6.25;2.20;;;14.50;99.90;;;;;;5057566;28;20390;-88
2022/10/10 11:35:39;;;;;;;5.45;2.00;;;14.50;99.90;;;;;;5068986;28;20470;-87
2022/10/10 11:38:16;;;;;;;8.18;2.20;;;14.50;99.90;;;;;;5061849;28;20387;-88
2022/10/10 11:40:58;;;;;;;8.38;2.00;;;14.40;99.90;;;;;;5062214;28;20432;-88
2022/10/10 11:43:53;;;;;;;6.17;1.93;;;14.40;99.90;;;;;;5070298;28;20362;-88
2022/10/10 11:46:38;;;;;;;8.98;2.10;;;14.40;99.90;;;;;;5041007;28;20437;-88
2022/10/10 11:49:12;;;;;;;6.82;2.13;;;14.40;99.90;;;;;;5067121;28;20399;-88
2022/10/10 11:51:56;;;;;;;8.25;2.28;;;14.40;99.90;;;;;;5070281;28;20734;-88
2022/10/10 11:54:52;;;;;;;8.20;2.13;;;14.30;99.90;;;;;;5073116;28;20745;-88
2022/10/10 11:57:27;;;;;;;8.40;2.05;;;14.20;99.90;;;;;;5045098;28;20389;-88
2022/10/10 12:00:10;;;;;;;7.93;2.00;;;14.10;99.90;;;;;;5069948;28;20382;-88
2022/10/10 12:02:39;;;;;;;9.38;2.28;;;16.40;99.90;;;;;;5061523;28;20890;-88
2022/10/10 12:05:21;;;;;;;7.05;2.00;;;13.90;99.90;;;;;;5053069;28;20471;-88
2022/10/10 12:07:56;;;;;;;11.13;2.22;;;13.90;99.90;;;;;;5073430;28;20373;-87
2022/10/10 12:10:44;;;;;;;8.27;2.33;;;13.90;99.90;;;;;;5071644;28;20416;-87
2022/10/10 12:13:17;;;;;;;12.70;2.60;;;13.90;99.90;;;;;;5073387;28;20451;-87
2022/10/10 12:15:45;;;;;;;11.20;2.70;;;13.90;99.90;;;;;;5040286;28;20395;-88
2022/10/10 12:18:39;;;;;;;20.10;3.47;;;13.90;99.90;;;;;;5073209;28;20385;-87
2022/10/10 12:21:10;;;;;;;13.40;3.20;;;13.90;99.90;;;;;;5053074;28;20451;-88
2022/10/10 12:23:39;;;;;;;15.48;3.20;;;13.90;99.90;;;;;;5060192;28;20388;-89
2022/10/10 12:26:11;;;;;;;27.45;6.47;;;13.90;99.90;;;;;;5073526;28;20390;-89
2022/10/10 12:28:59;;;;;;;20.60;6.60;;;14.00;99.90;;;;;;5070721;28;20439;-89
2022/10/10 12:31:30;;;;;;;14.93;4.55;;;13.90;99.90;;;;;;5060148;28;20432;-90
2022/10/10 12:34:10;;;;;;;14.98;3.60;;;14.00;99.90;;;;;;5071706;28;20378;-90
2022/10/10 12:36:41;;;;;;;13.32;3.33;;;14.10;99.90;;;;;;5052231;28;20382;-89
2022/10/10 12:39:09;;;;;;;12.93;3.03;;;14.00;99.90;;;;;;5072857;28;20376;-89
2022/10/10 12:41:42;;;;;;;13.50;3.00;;;14.10;99.90;;;;;;5073713;28;20897;-88
2022/10/10 12:44:35;;;;;;;7.78;2.60;;;14.00;99.90;;;;;;5047550;28;20407;-88
2022/10/10 12:47:14;;;;;;;10.85;2.60;;;14.00;99.90;;;;;;5054327;28;20370;-88
2022/10/10 12:49:58;;;;;;;12.35;2.78;;;14.00;99.90;;;;;;5068930;28;20412;-89
2022/10/10 12:52:44;;;;;;;12.57;2.75;;;14.20;99.90;;;;;;5064466;28;20379;-89
2022/10/10 12:55:26;;;;;;;23.80;3.10;;;13.90;99.90;;;;;;5072358;28;20444;-89
2022/10/10 12:58:01;;;;;;;20.40;3.30;;;13.90;99.90;;;;;;5052917;28;20390;-89
2022/10/10 13:00:40;;;;;;;18.27;3.10;;;13.90;99.90;;;;;;5036548;28;20394;-89
2022/10/10 13:03:28;;;;;;;13.95;3.15;;;13.80;99.90;;;;;;5052386;28;20385;-90
2022/10/10 13:05:59;;;;;;;17.20;3.10;;;13.80;99.90;;;;;;5061860;28;20386;-89
2022/10/10 13:08:29;;;;;;;31.38;3.80;;;13.80;99.90;;;;;;5073070;28;20375;-87
2022/10/10 13:11:06;;;;;;;27.00;3.67;;;13.80;99.90;;;;;;5065820;28;20423;-88
2022/10/10 13:13:33;;;;;;;25.88;4.20;;;13.80;99.90;;;;;;5056719;28;20391;-89
2022/10/10 13:16:13;;;;;;;34.83;4.25;;;13.80;99.90;;;;;;5047905;28;20388;-89